createdAt,value
2023-04-27T00:00:02.965Z,1014.04
2023-04-27T00:05:03.203Z,1014.07
2023-04-27T00:10:04.425Z,1014.04
2023-04-27T00:15:03.043Z,1014.13
2023-04-27T00:20:03.045Z,1014.14
2023-04-27T00:25:03.705Z,1014.14
2023-04-27T00:30:03.054Z,1014.17
2023-04-27T00:35:03.223Z,1014.19
2023-04-27T00:40:03.091Z,1014.19
2023-04-27T00:45:03.262Z,1014.17
2023-04-27T00:50:03.111Z,1014.12
2023-04-27T00:55:02.852Z,1014.07
2023-04-27T01:00:03.867Z,1014.07
2023-04-27T01:05:02.951Z,1014.03
2023-04-27T01:10:02.944Z,1014.08
2023-04-27T01:15:02.971Z,1014.03
2023-04-27T01:20:03.066Z,1014.03
2023-04-27T01:25:02.963Z,1014.08
2023-04-27T01:30:03.032Z,1014.08
2023-04-27T01:35:02.876Z,1014.13
2023-04-27T01:40:02.986Z,1014.19
2023-04-27T01:45:03.156Z,1014.14
2023-04-27T01:50:02.946Z,1014.12
2023-04-27T01:55:03.039Z,1014.12
2023-04-27T02:00:03.058Z,1014.18
2023-04-27T02:05:03.057Z,1014.19
2023-04-27T02:10:02.981Z,1014.24
2023-04-27T02:15:02.994Z,1014.21
2023-04-27T02:20:03.216Z,1014.24
2023-04-27T02:25:02.911Z,1014.27
2023-04-27T02:30:03.090Z,1014.23
2023-04-27T02:35:03.116Z,1014.3
2023-04-27T02:40:03.000Z,1014.34
2023-04-27T02:45:02.953Z,1014.37
2023-04-27T02:50:03.044Z,1014.4
2023-04-27T02:55:02.886Z,1014.42
2023-04-27T03:00:03.780Z,1014.42
2023-04-27T03:05:02.943Z,1014.41
2023-04-27T03:10:03.141Z,1014.43
2023-04-27T03:15:02.960Z,1014.4
2023-04-27T03:20:03.164Z,1014.41
2023-04-27T03:25:02.978Z,1014.44
2023-04-27T03:30:03.067Z,1014.41
2023-04-27T03:35:02.941Z,1014.42
2023-04-27T03:40:02.971Z,1014.4
2023-04-27T03:45:03.125Z,1014.38
2023-04-27T03:50:03.150Z,1014.43
2023-04-27T03:55:03.043Z,1014.39
2023-04-27T04:00:03.108Z,1014.35
2023-04-27T04:05:02.928Z,1014.35
2023-04-27T04:10:03.030Z,1014.3
2023-04-27T04:15:02.967Z,1014.27
2023-04-27T04:20:02.967Z,1014.27
2023-04-27T04:25:02.960Z,1014.2
2023-04-27T04:30:03.041Z,1014.21
2023-04-27T04:35:02.961Z,1014.2
2023-04-27T04:40:03.079Z,1014.18
2023-04-27T04:45:02.981Z,1014.18
2023-04-27T04:50:02.939Z,1014.18
2023-04-27T04:55:02.872Z,1014.25
2023-04-27T05:00:03.036Z,1014.26
2023-04-27T05:05:02.950Z,1014.13
2023-04-27T05:10:02.974Z,1014.05
2023-04-27T05:15:02.932Z,1014.06
2023-04-27T05:20:02.989Z,1014.05
2023-04-27T05:25:02.932Z,1014.06
2023-04-27T05:30:03.225Z,1014.05
2023-04-27T05:35:02.920Z,1014.06
2023-04-27T05:40:04.082Z,1014.05
2023-04-27T05:45:02.959Z,1014.06
2023-04-27T05:50:03.085Z,1014.01
2023-04-27T05:55:02.982Z,1013.98
2023-04-27T06:00:03.097Z,1013.96
2023-04-27T06:05:03.010Z,1013.98
2023-04-27T06:10:02.995Z,1013.96
2023-04-27T06:15:02.849Z,1013.92
2023-04-27T06:20:03.013Z,1013.97
2023-04-27T06:25:02.952Z,1013.95
2023-04-27T06:30:02.984Z,1013.96
2023-04-27T06:35:02.924Z,1013.96
2023-04-27T06:40:02.956Z,1013.93
2023-04-27T06:45:02.853Z,1013.86
2023-04-27T06:50:03.110Z,1013.86
2023-04-27T06:55:02.932Z,1013.86
2023-04-27T07:00:03.193Z,1013.83
2023-04-27T07:05:03.299Z,1013.81
2023-04-27T07:10:02.967Z,1013.77
2023-04-27T07:15:02.994Z,1013.82
2023-04-27T07:20:02.912Z,1013.77
2023-04-27T07:25:02.931Z,1013.83
2023-04-27T07:30:03.001Z,1013.83
2023-04-27T07:35:02.910Z,1013.83
2023-04-27T07:40:02.968Z,1013.86
2023-04-27T07:45:02.987Z,1013.86
2023-04-27T07:50:02.945Z,1013.82
2023-04-27T07:55:02.900Z,1013.86
2023-04-27T08:00:03.099Z,1013.82
2023-04-27T08:05:03.274Z,1013.8
2023-04-27T08:10:02.968Z,1013.79
2023-04-27T08:15:02.936Z,1013.8
2023-04-27T08:20:02.938Z,1013.78
2023-04-27T08:25:02.868Z,1013.8
2023-04-27T08:30:02.995Z,1013.8
2023-04-27T08:35:02.959Z,1013.74
2023-04-27T08:40:03.151Z,1013.72
2023-04-27T08:45:02.873Z,1013.77
2023-04-27T08:50:03.000Z,1013.84
2023-04-27T08:55:03.155Z,1013.88
2023-04-27T09:00:03.043Z,1013.93
2023-04-27T09:05:03.049Z,1014.0
2023-04-27T09:10:02.984Z,1014.0
2023-04-27T09:15:02.963Z,1014.01
2023-04-27T09:20:02.945Z,1014.01
2023-04-27T09:25:03.008Z,1014.06
2023-04-27T09:30:03.003Z,1014.12
2023-04-27T09:35:02.991Z,1014.19
2023-04-27T09:40:03.041Z,1014.26
2023-04-27T09:45:02.961Z,1014.33
2023-04-27T09:50:02.995Z,1014.41
2023-04-27T09:55:03.035Z,1014.49
2023-04-27T10:00:03.061Z,1014.49
2023-04-27T10:05:03.139Z,1014.53
2023-04-27T10:10:02.942Z,1014.65
2023-04-27T10:15:03.020Z,1014.69
2023-04-27T10:20:03.003Z,1014.73
2023-04-27T10:25:03.088Z,1014.83
2023-04-27T10:30:02.987Z,1014.88
2023-04-27T10:35:02.975Z,1014.92
2023-04-27T10:40:03.097Z,1014.96
2023-04-27T10:45:02.979Z,1015.02
2023-04-27T10:50:03.183Z,1015.0
2023-04-27T10:55:02.909Z,1015.0
2023-04-27T11:00:03.003Z,1014.96
2023-04-27T11:05:02.958Z,1014.91
2023-04-27T11:10:03.077Z,1014.96
2023-04-27T11:15:02.968Z,1015.0
2023-04-27T11:20:03.087Z,1014.96
2023-04-27T11:25:03.212Z,1014.94
2023-04-27T11:30:02.994Z,1014.96
2023-04-27T11:35:03.058Z,1015.08
2023-04-27T11:40:02.991Z,1015.16
2023-04-27T11:45:02.943Z,1015.11
2023-04-27T11:50:02.989Z,1015.09
2023-04-27T11:55:02.856Z,1015.2
2023-04-27T12:00:03.509Z,1015.3
2023-04-27T12:05:03.094Z,1015.3
2023-04-27T12:10:03.044Z,1015.34
2023-04-27T12:15:02.964Z,1015.35
2023-04-27T12:20:03.033Z,1015.34
2023-04-27T12:25:02.964Z,1015.33
2023-04-27T12:30:03.058Z,1015.34
2023-04-27T12:35:03.557Z,1015.39
2023-04-27T12:40:04.535Z,1015.4
2023-04-27T12:45:02.925Z,1015.38
2023-04-27T12:50:03.061Z,1015.3
2023-04-27T12:55:02.867Z,1015.33
2023-04-27T13:00:03.139Z,1015.38
2023-04-27T13:05:03.040Z,1015.38
2023-04-27T13:10:03.073Z,1015.4
2023-04-27T13:15:02.887Z,1015.51
2023-04-27T13:20:03.101Z,1015.52
2023-04-27T13:25:03.036Z,1015.53
2023-04-27T13:30:04.503Z,1015.51
2023-04-27T13:35:02.961Z,1015.52
2023-04-27T13:40:03.125Z,1015.51
2023-04-27T13:45:02.977Z,1015.51
2023-04-27T13:50:03.096Z,1015.47
2023-04-27T13:55:02.949Z,1015.53
2023-04-27T14:00:03.133Z,1015.53
2023-04-27T14:05:03.019Z,1015.49
2023-04-27T14:10:03.223Z,1015.47
2023-04-27T14:15:02.940Z,1015.41
2023-04-27T14:20:08.101Z,1015.32
2023-04-27T14:25:02.961Z,1015.32
2023-04-27T14:30:03.223Z,1015.31
2023-04-27T14:35:02.981Z,1015.14
2023-04-27T14:40:03.001Z,1015.08
2023-04-27T14:45:02.999Z,1015.11
2023-04-27T14:50:03.015Z,1015.12
2023-04-27T14:55:02.961Z,1015.01
2023-04-27T15:00:03.242Z,1014.93
2023-04-27T15:05:03.045Z,1014.89
2023-04-27T15:10:03.044Z,1014.84
2023-04-27T15:15:03.031Z,1014.8
2023-04-27T15:20:03.046Z,1014.83
2023-04-27T15:25:02.992Z,1014.76
2023-04-27T15:30:03.008Z,1014.64
2023-04-27T15:35:03.074Z,1014.53
2023-04-27T15:40:03.114Z,1014.51
2023-04-27T15:45:02.994Z,1014.5
2023-04-27T15:50:03.025Z,1014.5
2023-04-27T15:55:02.953Z,1014.46
2023-04-27T16:00:03.240Z,1014.36
2023-04-27T16:05:03.080Z,1014.31
2023-04-27T16:10:03.097Z,1014.25
2023-04-27T16:15:02.969Z,1014.21
2023-04-27T16:20:03.096Z,1014.11
2023-04-27T16:25:04.034Z,1014.0
2023-04-27T16:30:04.066Z,1013.9
2023-04-27T16:35:03.304Z,1013.9
2023-04-27T16:40:03.082Z,1013.75
2023-04-27T16:45:02.974Z,1013.67
2023-04-27T16:50:03.009Z,1013.65
2023-04-27T16:55:02.982Z,1013.61
2023-04-27T17:00:02.981Z,1013.57
2023-04-27T17:05:02.991Z,1013.55
2023-04-27T17:10:03.077Z,1013.4
2023-04-27T17:15:03.014Z,1013.39
2023-04-27T17:20:03.003Z,1013.27
2023-04-27T17:25:02.994Z,1013.2
2023-04-27T17:30:03.032Z,1013.18
2023-04-27T17:35:02.857Z,1013.19
2023-04-27T17:40:03.244Z,1013.23
2023-04-27T17:45:03.018Z,1013.18
2023-04-27T17:50:03.172Z,1013.08
2023-04-27T17:55:02.978Z,1013.08
2023-04-27T18:00:03.072Z,1013.11
2023-04-27T18:05:03.017Z,1013.05
2023-04-27T18:10:03.007Z,1013.07
2023-04-27T18:15:04.500Z,1013.12
2023-04-27T18:20:07.923Z,1013.09
2023-04-27T18:25:02.852Z,1012.99
2023-04-27T18:30:03.076Z,1012.95
2023-04-27T18:35:03.044Z,1012.92
2023-04-27T18:40:03.028Z,1012.95
2023-04-27T18:45:02.940Z,1012.87
2023-04-27T18:50:03.036Z,1012.82
2023-04-27T18:55:02.953Z,1012.85
2023-04-27T19:00:03.168Z,1012.9
2023-04-27T19:05:12.020Z,1012.88
2023-04-27T19:10:03.047Z,1012.83
2023-04-27T19:15:02.944Z,1012.91
2023-04-27T19:20:02.998Z,1012.96
2023-04-27T19:25:02.911Z,1012.96
2023-04-27T19:30:03.051Z,1013.03
2023-04-27T19:35:02.952Z,1013.0
2023-04-27T19:40:03.018Z,1012.98
2023-04-27T19:45:03.050Z,1013.07
2023-04-27T19:50:03.046Z,1013.11
2023-04-27T19:55:02.961Z,1013.12
2023-04-27T20:00:03.030Z,1013.2
2023-04-27T20:05:03.315Z,1013.19
2023-04-27T20:10:03.091Z,1013.17
2023-04-27T20:15:02.872Z,1013.22
2023-04-27T20:20:03.192Z,1013.21
2023-04-27T20:25:02.967Z,1013.24
2023-04-27T20:30:03.021Z,1013.2
2023-04-27T20:35:02.962Z,1013.16
2023-04-27T20:40:02.940Z,1013.12
2023-04-27T20:45:02.945Z,1013.13
2023-04-27T20:50:03.104Z,1013.14
2023-04-27T20:55:02.884Z,1013.17
2023-04-27T21:00:03.148Z,1013.19
2023-04-27T21:05:03.055Z,1013.16
2023-04-27T21:10:03.126Z,1013.16
2023-04-27T21:15:03.035Z,1013.21
2023-04-27T21:20:03.092Z,1013.24
2023-04-27T21:25:02.979Z,1013.25
2023-04-27T21:30:03.044Z,1013.25
2023-04-27T21:35:03.009Z,1013.25
2023-04-27T21:40:03.075Z,1013.3
2023-04-27T21:45:03.135Z,1013.22
2023-04-27T21:50:03.001Z,1013.3
2023-04-27T21:55:03.113Z,1013.34
2023-04-27T22:00:03.220Z,1013.38
2023-04-27T22:05:03.080Z,1013.44
2023-04-27T22:10:02.984Z,1013.49
2023-04-27T22:15:03.073Z,1013.58
2023-04-27T22:20:03.054Z,1013.65
2023-04-27T22:25:02.932Z,1013.71
2023-04-27T22:30:03.176Z,1013.73
2023-04-27T22:35:03.022Z,1013.74
2023-04-27T22:40:03.000Z,1013.8
2023-04-27T22:45:03.083Z,1013.8
2023-04-27T22:50:03.087Z,1013.81
2023-04-27T22:55:02.874Z,1013.85
2023-04-27T23:00:03.165Z,1013.88
2023-04-27T23:05:03.020Z,1013.94
2023-04-27T23:10:03.103Z,1013.96
2023-04-27T23:15:02.961Z,1014.01
2023-04-27T23:20:03.195Z,1013.95
2023-04-27T23:25:02.962Z,1013.96
2023-04-27T23:30:03.113Z,1014.07
2023-04-27T23:35:03.102Z,1014.16
2023-04-27T23:40:03.036Z,1014.11
2023-04-27T23:45:02.861Z,1014.21
2023-04-27T23:50:03.127Z,1014.32
2023-04-27T23:55:02.954Z,1014.42
